Time;durP1;ratioP1;P1;durP2;ratioP2;P2;SDS_P1;SDS_P2;PMS_P1;PMS_P2;Temp;Humidity;BMP_temperature;BMP_pressure;BME280_temperature;BME280_humidity;BME280_pressure;Samples;Min_cycle;Max_cycle;Signal;HPM_P1;HPM_P2
2022/08/15 00:01:09;;;;;;;13.80;8.18;;;;;;;22.97;59.25;99405.53;6275018;22;20074;-76
2022/08/15 00:03:39;;;;;;;10.02;8.00;;;;;;;23.10;59.62;99432.66;6274930;22;20328;-76
2022/08/15 00:06:17;;;;;;;9.82;8.27;;;;;;;23.03;59.68;99431.94;6274905;22;20006;-76
2022/08/15 00:08:49;;;;;;;8.07;7.20;;;;;;;22.97;60.28;99427.41;6274976;22;20023;-75
2022/08/15 00:11:18;;;;;;;12.63;9.13;;;;;;;22.94;60.64;99432.50;6274714;22;20076;-75
2022/08/15 00:13:49;;;;;;;11.52;8.30;;;;;;;22.93;60.47;99430.84;6274808;22;20065;-75
2022/08/15 00:16:16;;;;;;;11.35;7.85;;;;;;;22.90;60.59;99431.31;6274668;22;20012;-75
2022/08/15 00:18:42;;;;;;;13.27;8.32;;;;;;;22.84;60.65;99432.25;6274771;22;20459;-74
2022/08/15 00:21:09;;;;;;;10.20;7.55;;;;;;;22.76;60.90;99427.94;6274659;22;20015;-75
2022/08/15 00:23:34;;;;;;;8.77;7.85;;;;;;;22.65;61.08;99420.56;6272953;22;20463;-75
2022/08/15 00:26:01;;;;;;;11.43;8.52;;;;;;;22.52;61.12;99406.25;6274647;22;20033;-75
2022/08/15 00:28:29;;;;;;;10.63;8.38;;;;;;;22.66;61.32;99441.38;6274715;22;20866;-75
2022/08/15 00:30:55;;;;;;;9.55;7.65;;;;;;;22.65;61.39;99445.16;6274700;22;20646;-76
2022/08/15 00:33:21;;;;;;;13.43;8.38;;;;;;;22.57;61.50;99431.81;6274750;22;20031;-75
2022/08/15 00:35:49;;;;;;;10.70;7.82;;;;;;;22.59;62.03;99445.25;6274303;22;20313;-75
2022/08/15 00:38:23;;;;;;;9.18;8.27;;;;;;;22.57;62.03;99450.94;6274382;22;20003;-75
2022/08/15 00:43:41;;;;;;;12.50;8.20;;;;;;;22.53;62.78;99449.75;6274507;22;20034;-75
2022/08/15 00:46:10;;;;;;;10.95;7.90;;;;;;;22.52;62.56;99434.44;6274768;22;20016;-75
2022/08/15 00:48:41;;;;;;;8.25;7.45;;;;;;;22.40;62.73;99414.38;6274457;22;20011;-75
2022/08/15 00:51:24;;;;;;;9.43;8.00;;;;;;;22.25;62.89;99395.69;6274401;22;19999;-75
2022/08/15 00:53:55;;;;;;;11.32;8.77;;;;;;;22.39;63.00;99426.41;6272658;22;20350;-75
2022/08/15 00:56:26;;;;;;;8.65;7.70;;;;;;;22.42;63.08;99422.34;6274518;22;20057;-74
2022/08/15 00:58:53;;;;;;;8.25;7.25;;;;;;;22.38;63.27;99422.00;6274054;22;20012;-75
2022/08/15 01:01:18;;;;;;;9.35;8.07;;;;;;;22.37;63.35;99433.16;6274353;22;20056;-75
2022/08/15 01:03:47;;;;;;;13.52;8.25;;;;;;;22.34;63.62;99426.25;6274094;22;20027;-75
2022/08/15 01:06:14;;;;;;;13.30;8.10;;;;;;;22.31;63.67;99426.69;6274835;22;20409;-75
2022/08/15 01:08:44;;;;;;;9.18;8.20;;;;;;;22.26;63.90;99430.16;6274025;22;20014;-75
2022/08/15 01:11:31;;;;;;;14.20;8.48;;;;;;;22.19;64.02;99414.91;6274490;22;20007;-74
2022/08/15 01:14:01;;;;;;;12.27;8.02;;;;;;;22.16;64.04;99416.19;6274249;22;20425;-75
2022/08/15 01:16:29;;;;;;;10.23;8.60;;;;;;;22.24;63.90;99432.28;6274470;22;20005;-75
2022/08/15 01:18:55;;;;;;;10.38;8.88;;;;;;;22.20;64.11;99428.34;6274130;22;20010;-76
2022/08/15 01:21:31;;;;;;;9.60;8.23;;;;;;;21.94;64.49;99385.00;6274089;22;20004;-75
2022/08/15 01:24:03;;;;;;;10.80;8.68;;;;;;;22.17;64.42;99439.72;6274317;22;20039;-74
2022/08/15 01:26:30;;;;;;;9.02;8.07;;;;;;;22.15;64.25;99435.53;6274249;22;20010;-74
2022/08/15 01:28:55;;;;;;;11.55;8.63;;;;;;;22.06;64.41;99412.38;6272441;22;20348;-75
2022/08/15 01:31:25;;;;;;;11.30;8.93;;;;;;;22.04;64.02;99418.06;6272617;22;19999;-75
2022/08/15 01:33:59;;;;;;;9.27;8.20;;;;;;;22.11;64.06;99429.72;6274132;22;20007;-74
2022/08/15 01:36:29;;;;;;;10.05;8.70;;;;;;;21.97;64.08;99409.13;6274200;22;20034;-75
2022/08/15 01:39:18;;;;;;;13.27;8.82;;;;;;;22.05;64.26;99432.53;6274031;22;20004;-75
2022/08/15 01:41:46;;;;;;;12.98;8.73;;;;;;;21.98;64.62;99434.50;6273803;22;19999;-75
2022/08/15 01:44:39;;;;;;;14.15;9.20;;;;;;;21.79;65.19;99403.66;6274154;22;20058;-74
2022/08/15 01:47:27;;;;;;;10.68;9.07;;;;;;;21.92;65.57;99432.69;6271822;22;20030;-75
2022/08/15 01:50:11;;;;;;;11.90;9.27;;;;;;;21.86;65.52;99420.78;6273823;22;20094;-75
2022/08/15 01:52:42;;;;;;;10.43;8.35;;;;;;;21.83;65.97;99423.97;6274019;22;20075;-75
2022/08/15 01:55:09;;;;;;;10.18;9.10;;;;;;;21.80;66.01;99431.81;6273725;22;20012;-74
2022/08/15 01:57:35;;;;;;;11.98;9.38;;;;;;;21.79;66.46;99427.38;6274062;22;20063;-74
2022/08/15 02:00:01;;;;;;;9.63;8.57;;;;;;;21.77;66.67;99424.06;6274195;22;20088;-75
2022/08/15 02:02:27;;;;;;;14.43;9.63;;;;;;;21.73;66.87;99423.69;6274085;22;20020;-75
2022/08/15 02:04:54;;;;;;;15.10;9.52;;;;;;;21.64;67.01;99416.00;6273437;22;20087;-74
2022/08/15 02:07:25;;;;;;;10.85;8.60;;;;;;;21.70;67.37;99434.22;6272159;22;20021;-75
2022/08/15 02:09:53;;;;;;;10.85;8.23;;;;;;;21.69;67.05;99429.78;6272958;22;20143;-75
2022/08/15 02:12:24;;;;;;;10.88;8.57;;;;;;;21.54;66.93;99412.97;6273893;22;20424;-75
2022/08/15 02:14:49;;;;;;;12.18;9.55;;;;;;;21.63;66.85;99427.97;6273638;22;20000;-74
2022/08/15 02:17:16;;;;;;;13.70;9.18;;;;;;;21.36;66.90;99391.13;6273759;22;20254;-74
2022/08/15 02:19:45;;;;;;;14.07;9.35;;;;;;;21.60;66.92;99431.19;6273883;22;20078;-74
2022/08/15 02:22:12;;;;;;;13.15;9.85;;;;;;;21.46;67.15;99410.53;6274227;22;20034;-76
2022/08/15 02:24:37;;;;;;;12.05;9.40;;;;;;;21.46;66.99;99415.97;6271954;22;20011;-74
2022/08/15 02:27:04;;;;;;;10.77;8.60;;;;;;;21.52;67.15;99423.28;6273330;22;20007;-66
2022/08/15 02:29:30;;;;;;;11.88;9.43;;;;;;;21.47;67.21;99425.84;6271818;22;20077;-66
2022/08/15 02:32:02;;;;;;;11.90;9.38;;;;;;;21.43;67.66;99422.75;6271895;22;20008;-67
2022/08/15 02:34:27;;;;;;;12.70;9.75;;;;;;;21.29;68.04;99407.56;6272128;22;20388;-66
2022/08/15 02:36:53;;;;;;;12.38;10.05;;;;;;;21.31;69.00;99412.81;6271695;22;20004;-65
2022/08/15 02:39:19;;;;;;;13.10;9.05;;;;;;;21.33;69.06;99427.03;6271959;22;20037;-66
2022/08/15 02:41:50;;;;;;;14.30;9.82;;;;;;;21.26;69.24;99423.53;6271931;22;20053;-66
2022/08/15 02:44:20;;;;;;;11.70;10.02;;;;;;;21.25;69.53;99430.88;6271877;22;20008;-66
2022/08/15 02:46:46;;;;;;;18.20;10.18;;;;;;;21.16;69.88;99415.03;6269884;22;20008;-66
2022/08/15 02:49:12;;;;;;;22.35;10.77;;;;;;;21.07;70.21;99421.84;6270914;22;20018;-66
2022/08/15 02:51:40;;;;;;;15.65;10.55;;;;;;;21.12;70.77;99433.72;6270805;22;20092;-66
2022/08/15 02:54:07;;;;;;;12.98;9.50;;;;;;;21.03;70.78;99426.06;6269081;22;20007;-67
2022/08/15 02:56:34;;;;;;;13.38;9.27;;;;;;;21.05;71.02;99432.97;6270868;22;20112;-66
2022/08/15 02:59:00;;;;;;;16.95;10.95;;;;;;;20.80;70.99;99390.38;6270431;22;20018;-66
2022/08/15 03:01:27;;;;;;;15.70;10.07;;;;;;;21.00;71.33;99427.34;6270880;22;20003;-66
2022/08/15 03:03:55;;;;;;;12.93;10.05;;;;;;;21.02;71.14;99435.31;6268945;22;20437;-67
2022/08/15 03:06:26;;;;;;;12.75;10.15;;;;;;;20.96;71.03;99439.75;6270729;22;20034;-67
2022/08/15 03:08:54;;;;;;;13.77;9.50;;;;;;;20.95;71.00;99434.50;6270648;22;20038;-66
2022/08/15 03:11:20;;;;;;;11.35;9.82;;;;;;;20.97;71.20;99443.31;6270808;22;20004;-65
2022/08/15 03:13:46;;;;;;;16.90;10.25;;;;;;;20.87;71.73;99437.50;6270899;22;20007;-67
2022/08/15 03:16:13;;;;;;;13.82;10.68;;;;;;;20.92;72.40;99445.84;6271202;22;20429;-66
2022/08/15 03:18:42;;;;;;;17.58;10.73;;;;;;;20.75;72.49;99421.03;6270873;22;19999;-66
2022/08/15 03:21:12;;;;;;;17.50;10.02;;;;;;;20.71;72.29;99419.81;6271692;22;20033;-67
2022/08/15 03:23:42;;;;;;;19.08;10.32;;;;;;;20.82;72.52;99446.34;6271058;22;20456;-67
2022/08/15 03:26:09;;;;;;;18.20;10.48;;;;;;;20.76;72.70;99440.94;6272842;22;20083;-66
2022/08/15 03:28:34;;;;;;;17.50;10.55;;;;;;;20.72;73.05;99442.41;6272789;22;20003;-66
2022/08/15 03:31:04;;;;;;;20.05;10.75;;;;;;;20.71;73.14;99455.25;6272383;22;20011;-67
2022/08/15 03:33:33;;;;;;;14.10;9.98;;;;;;;20.69;73.32;99448.31;6272073;22;20170;-67
2022/08/15 03:35:59;;;;;;;26.20;11.20;;;;;;;20.53;72.93;99429.81;6272315;22;20086;-65
2022/08/15 03:38:26;;;;;;;13.57;9.65;;;;;;;20.60;73.08;99447.75;6272655;22;19999;-66
2022/08/15 03:40:52;;;;;;;11.52;9.60;;;;;;;20.60;73.51;99444.22;6272347;22;19991;-67
2022/08/15 03:43:21;;;;;;;15.25;10.10;;;;;;;20.59;73.86;99454.25;6272646;22;20015;-67
2022/08/15 03:45:51;;;;;;;16.10;10.73;;;;;;;20.55;74.03;99450.31;6272511;22;20371;-67
2022/08/15 03:48:18;;;;;;;15.48;10.50;;;;;;;20.32;74.29;99416.50;6272503;22;20015;-66
2022/08/15 03:50:44;;;;;;;12.70;10.25;;;;;;;20.58;74.75;99454.47;6272342;22;20003;-67
2022/08/15 03:53:11;;;;;;;13.98;10.50;;;;;;;20.59;74.48;99464.31;6271240;22;20003;-66
2022/08/15 03:55:40;;;;;;;15.27;10.27;;;;;;;20.52;74.25;99458.91;6270779;22;20515;-66
2022/08/15 03:58:07;;;;;;;17.95;10.45;;;;;;;20.55;74.59;99463.94;6272246;22;20002;-66
2022/08/15 04:00:38;;;;;;;23.88;10.93;;;;;;;20.57;74.72;99471.88;6272403;22;20074;-66
2022/08/15 04:03:15;;;;;;;22.05;11.05;;;;;;;20.51;74.31;99462.72;6272353;22;20419;-67
2022/08/15 04:05:42;;;;;;;27.13;11.43;;;;;;;20.53;74.36;99470.66;6270652;22;20003;-66
2022/08/15 04:08:10;;;;;;;28.27;11.20;;;;;;;20.53;75.05;99465.22;6272898;22;20420;-66
2022/08/15 04:10:37;;;;;;;23.33;11.95;;;;;;;20.38;74.44;99440.16;6272081;22;20416;-67
2022/08/15 04:13:04;;;;;;;35.90;12.45;;;;;;;20.39;74.67;99448.09;6270509;22;20389;-67
2022/08/15 04:15:30;;;;;;;42.55;11.93;;;;;;;20.42;74.99;99465.91;6272213;22;20003;-67
2022/08/15 04:17:55;;;;;;;47.38;13.75;;;;;;;20.32;77.42;99452.75;6272595;22;20004;-67
2022/08/15 04:20:22;;;;;;;35.92;12.27;;;;;;;20.37;77.88;99460.28;6271968;22;20011;-67
2022/08/15 04:22:49;;;;;;;21.17;11.55;;;;;;;20.28;76.90;99453.41;6271848;22;20010;-66
2022/08/15 04:25:27;;;;;;;20.52;11.13;;;;;;;20.37;76.10;99468.44;6272204;22;20004;-67
2022/08/15 04:27:56;;;;;;;20.10;11.45;;;;;;;20.43;75.89;99468.41;6271975;22;20004;-66
2022/08/15 04:30:25;;;;;;;18.70;10.93;;;;;;;20.43;76.02;99479.28;6272023;22;20464;-67
2022/08/15 04:32:53;;;;;;;17.77;11.60;;;;;;;20.47;76.46;99477.00;6269704;22;20069;-66
2022/08/15 04:35:19;;;;;;;28.40;12.00;;;;;;;20.45;76.64;99470.91;6272090;22;20007;-66
2022/08/15 04:37:44;;;;;;;17.20;11.13;;;;;;;20.57;75.96;99474.63;6271663;22;20000;-67
2022/08/15 04:40:14;;;;;;;21.30;11.65;;;;;;;20.54;76.11;99453.25;6272051;22;19999;-67
2022/08/15 04:42:53;;;;;;;19.52;11.48;;;;;;;20.64;75.53;99459.06;6272365;22;20026;-66
2022/08/15 04:45:19;;;;;;;22.40;11.25;;;;;;;20.59;74.58;99429.75;6271900;22;20153;-66
2022/08/15 04:47:45;;;;;;;19.15;12.30;;;;;;;20.90;74.55;99467.88;6271423;22;20012;-66
2022/08/15 04:50:11;;;;;;;22.52;11.15;;;;;;;20.99;74.24;99458.38;6272051;22;20019;-67
2022/08/15 04:52:45;;;;;;;20.05;11.00;;;;;;;21.13;73.39;99465.41;6270037;22;20027;-66
2022/08/15 04:55:13;;;;;;;15.80;11.45;;;;;;;21.15;72.85;99454.28;6272073;22;20004;-67
2022/08/15 04:57:39;;;;;;;17.65;10.50;;;;;;;21.31;72.43;99468.19;6270170;22;20022;-66
2022/08/15 05:00:11;;;;;;;16.38;11.38;;;;;;;21.41;72.04;99462.22;6271663;22;20431;-66
2022/08/15 05:02:37;;;;;;;15.10;11.40;;;;;;;21.41;72.11;99449.41;6272054;22;20030;-65
2022/08/15 05:05:06;;;;;;;13.45;10.20;;;;;;;21.60;71.54;99455.75;6271728;22;20004;-66
2022/08/15 05:07:33;;;;;;;16.55;10.90;;;;;;;21.78;70.80;99464.78;6269906;22;20003;-67
2022/08/15 05:09:59;;;;;;;23.73;11.18;;;;;;;21.89;70.61;99463.19;6271407;22;20008;-67
2022/08/15 05:12:26;;;;;;;20.85;10.88;;;;;;;21.85;69.66;99443.72;6271568;22;20056;-66
2022/08/15 05:14:51;;;;;;;24.42;11.88;;;;;;;22.07;69.18;99452.25;6271658;22;20492;-67
2022/08/15 05:17:17;;;;;;;29.60;11.68;;;;;;;22.25;67.95;99463.16;6271584;22;20333;-67
2022/08/15 05:19:42;;;;;;;26.08;12.55;;;;;;;22.26;68.04;99451.16;6270072;22;20028;-67
2022/08/15 05:22:08;;;;;;;26.10;12.07;;;;;;;22.40;68.00;99460.84;6271450;22;20396;-66
2022/08/15 05:24:34;;;;;;;22.02;11.73;;;;;;;22.48;67.83;99454.22;6269884;22;20012;-65
2022/08/15 05:27:00;;;;;;;26.10;11.05;;;;;;;22.67;67.64;99450.41;6271266;22;19999;-67
2022/08/15 05:29:26;;;;;;;20.88;11.05;;;;;;;22.82;67.30;99454.38;6271389;22;20401;-66
2022/08/15 05:31:52;;;;;;;20.80;10.35;;;;;;;22.97;67.14;99456.66;6269604;22;20058;-66
2022/08/15 05:34:19;;;;;;;19.30;11.45;;;;;;;23.13;66.74;99456.81;6271358;22;20355;-66
2022/08/15 05:36:45;;;;;;;39.28;13.82;;;;;;;23.07;66.48;99419.44;6271305;22;20007;-66
2022/08/15 05:39:21;;;;;;;30.63;12.73;;;;;;;23.37;66.51;99455.78;6271548;22;19999;-66
2022/08/15 05:42:35;;;;;;;34.78;13.18;;;;;;;23.54;66.46;99459.47;6271496;22;20026;-67
2022/08/15 05:45:01;;;;;;;17.08;11.95;;;;;;;23.70;66.30;99455.19;6176903;23;20033;-66
2022/08/15 05:47:50;;;;;;;21.33;11.25;;;;;;;23.91;65.86;99452.63;6177300;23;20013;-66
2022/08/15 05:50:24;;;;;;;25.92;12.20;;;;;;;24.13;65.66;99453.69;6232761;22;20011;-67
2022/08/15 05:53:20;;;;;;;19.80;11.60;;;;;;;24.31;65.31;99453.50;6271262;22;20007;-65
2022/08/15 05:55:55;;;;;;;12.23;10.38;;;;;;;24.45;64.65;99438.41;6271351;22;20443;-66
2022/08/15 05:58:38;;;;;;;20.30;10.88;;;;;;;24.78;63.75;99453.31;6271316;22;20074;-66
2022/08/15 06:02:01;;;;;;;17.55;10.73;;;;;;;24.96;63.01;99450.34;6271092;22;20011;-66
2022/08/15 06:04:36;;;;;;;23.58;11.32;;;;;;;25.15;61.88;99441.59;6177039;23;20460;-67
2022/08/15 06:07:06;;;;;;;14.55;10.98;;;;;;;25.14;61.58;99431.72;6176919;23;20039;-66
2022/08/15 06:09:40;;;;;;;16.95;10.65;;;;;;;25.40;61.32;99447.53;6229460;22;20008;-67
2022/08/15 06:12:25;;;;;;;15.05;11.30;;;;;;;25.57;60.62;99450.28;6271012;22;20007;-66
2022/08/15 06:14:52;;;;;;;;;;;;;;;25.74;60.32;99451.06;6271733;22;20015;-66
2022/08/15 06:17:25;;;;;;;20.58;11.40;;;;;;;25.81;59.42;99421.47;6271131;22;19914;-66
2022/08/15 06:19:52;;;;;;;20.80;10.27;;;;;;;26.08;58.72;99447.97;6271025;22;20015;-67
2022/08/15 06:22:29;;;;;;;16.13;10.15;;;;;;;26.25;58.59;99447.94;6270819;22;20008;-67
2022/08/15 06:25:10;;;;;;;13.65;10.32;;;;;;;26.38;57.85;99451.09;6270799;22;20008;-67
2022/08/15 06:27:57;;;;;;;18.85;11.73;;;;;;;26.44;57.21;99424.50;6271147;22;20077;-65
2022/08/15 06:30:43;;;;;;;19.10;10.13;;;;;;;26.77;56.59;99448.22;6271016;22;20461;-66
2022/08/15 06:33:39;;;;;;;19.27;10.32;;;;;;;26.92;56.50;99443.69;6271114;22;20316;-66
2022/08/15 06:36:30;;;;;;;14.10;10.07;;;;;;;27.01;55.79;99444.06;6271173;22;20067;-67
2022/08/15 06:39:10;;;;;;;13.70;10.38;;;;;;;27.28;55.61;99458.66;6271189;22;20003;-66
2022/08/15 06:42:10;;;;;;;19.30;9.80;;;;;;;27.48;54.83;99459.63;6270999;22;20344;-67
2022/08/15 06:44:35;;;;;;;14.20;9.68;;;;;;;27.62;54.08;99454.47;6271046;22;20007;-67
2022/08/15 06:47:04;;;;;;;12.20;9.45;;;;;;;27.75;53.66;99457.59;6270752;22;20101;-66
2022/08/15 06:49:40;;;;;;;16.05;10.13;;;;;;;27.95;53.44;99457.72;6269173;22;20455;-66
2022/08/15 06:52:07;;;;;;;14.13;10.15;;;;;;;28.01;52.77;99437.38;6270851;22;20403;-66
2022/08/15 06:54:35;;;;;;;15.20;10.68;;;;;;;28.25;52.69;99462.56;6270857;22;20004;-67
2022/08/15 06:57:00;;;;;;;13.68;10.40;;;;;;;28.33;52.46;99456.53;6271971;22;20053;-67
2022/08/15 06:59:40;;;;;;;15.18;9.65;;;;;;;28.32;52.27;99447.44;6272889;22;20004;-67
2022/08/15 07:02:43;;;;;;;13.18;10.52;;;;;;;28.44;51.46;99459.06;6272655;22;20337;-66
2022/08/15 07:05:41;;;;;;;10.88;9.50;;;;;;;28.60;51.46;99459.13;6272841;22;20008;-66
2022/08/15 07:08:25;;;;;;;18.15;10.95;;;;;;;28.67;51.19;99448.66;6267426;22;20016;-66
2022/08/15 07:11:11;;;;;;;;;;;;;;;28.80;50.86;99461.94;6273862;22;20045;-66
2022/08/15 07:13:50;;;;;;;15.88;9.80;;;;;;;28.85;50.34;99448.94;6255530;22;19914;-66
2022/08/15 07:16:27;;;;;;;12.80;9.98;;;;;;;29.11;49.83;99458.13;6271355;22;20000;-66
2022/08/15 07:18:59;;;;;;;13.82;9.55;;;;;;;29.15;49.71;99442.66;6272682;22;20003;-66
2022/08/15 07:21:25;;;;;;;15.05;9.25;;;;;;;29.41;48.73;99461.72;6272645;22;20014;-66
2022/08/15 07:24:07;;;;;;;13.48;9.38;;;;;;;29.53;48.49;99456.72;6272554;22;20007;-66
2022/08/15 07:26:46;;;;;;;11.63;9.02;;;;;;;29.70;47.79;99459.22;6270959;22;20007;-66
2022/08/15 07:29:30;;;;;;;12.05;10.23;;;;;;;29.75;47.79;99456.44;6272820;22;20007;-65
2022/08/15 07:32:11;;;;;;;12.07;9.18;;;;;;;29.88;47.72;99456.69;6270712;22;20026;-66
2022/08/15 07:34:39;;;;;;;13.65;9.55;;;;;;;30.03;47.24;99467.72;6272564;22;20007;-66
2022/08/15 07:37:06;;;;;;;12.20;8.95;;;;;;;30.12;46.73;99460.47;6270828;22;20019;-65
2022/08/15 07:39:39;;;;;;;11.98;9.75;;;;;;;30.11;46.39;99444.97;6272939;22;20004;-65
2022/08/15 07:42:18;;;;;;;14.20;9.13;;;;;;;30.23;46.50;99461.28;6272547;22;20420;-65
2022/08/15 07:44:59;;;;;;;9.20;8.02;;;;;;;30.39;45.71;99468.41;6272256;22;20083;-66
2022/08/15 07:47:31;;;;;;;23.23;10.07;;;;;;;30.41;45.56;99463.44;6270937;22;20004;-67
2022/08/15 07:50:10;;;;;;;16.92;9.43;;;;;;;30.51;45.51;99461.47;6272834;22;20011;-66
2022/08/15 07:52:37;;;;;;;15.93;9.50;;;;;;;30.53;45.24;99452.84;6272847;22;20003;-66
2022/08/15 07:55:17;;;;;;;17.40;9.80;;;;;;;30.73;45.12;99454.72;6272325;22;20322;-64
2022/08/15 07:58:27;;;;;;;27.75;10.25;;;;;;;30.79;44.44;99445.25;6270690;22;20012;-64
2022/08/15 08:01:27;;;;;;;15.88;8.93;;;;;;;30.99;44.38;99464.50;6244233;22;20015;-66
2022/08/15 08:04:15;;;;;;;13.38;8.52;;;;;;;31.05;43.56;99461.41;6272333;22;20027;-66
2022/08/15 08:06:49;;;;;;;9.63;8.60;;;;;;;31.02;42.80;99447.31;6272251;22;20000;-65
2022/08/15 08:09:30;;;;;;;9.68;8.55;;;;;;;31.23;42.43;99462.63;6272426;22;20007;-66
2022/08/15 08:12:17;;;;;;;16.85;8.93;;;;;;;31.24;41.81;99454.03;6270354;22;20035;-65
2022/08/15 08:15:12;;;;;;;11.02;8.50;;;;;;;31.26;41.91;99446.28;6272298;22;20480;-65
2022/08/15 08:18:14;;;;;;;12.05;8.27;;;;;;;31.50;42.08;99469.34;6258939;22;20018;-66
2022/08/15 08:20:56;;;;;;;16.65;8.20;;;;;;;31.69;41.17;99461.97;6252257;22;20007;-66
2022/08/15 08:23:30;;;;;;;11.45;7.40;;;;;;;31.67;41.48;99455.06;6272120;22;20003;-66
2022/08/15 08:26:06;;;;;;;13.82;8.80;;;;;;;31.74;41.00;99458.31;6271978;22;20425;-65
2022/08/15 08:29:06;;;;;;;10.98;7.85;;;;;;;31.79;41.03;99459.09;6272259;22;20011;-66
2022/08/15 08:31:50;;;;;;;11.27;8.00;;;;;;;31.85;40.45;99457.94;6270411;22;20395;-65
2022/08/15 08:34:28;;;;;;;11.27;7.72;;;;;;;31.89;40.63;99461.78;6272312;22;20105;-65
2022/08/15 08:37:12;;;;;;;8.10;7.30;;;;;;;31.94;39.81;99458.13;6271863;22;20440;-66
2022/08/15 08:43:37;;;;;;;9.45;7.45;;;;;;;32.04;38.39;99461.63;6238979;22;20011;-66
2022/08/15 08:46:35;;;;;;;7.60;6.80;;;;;;;32.05;37.66;99466.03;6195559;22;20019;-65
2022/08/15 08:49:30;;;;;;;8.45;6.80;;;;;;;32.13;37.47;99465.41;6262364;22;20444;-66
2022/08/15 08:52:33;;;;;;;9.90;7.30;;;;;;;32.16;37.78;99464.81;6214010;22;20011;-65
2022/08/15 08:55:11;;;;;;;10.83;6.97;;;;;;;32.25;38.09;99459.44;6255213;22;20008;-66
2022/08/15 08:57:48;;;;;;;7.57;6.88;;;;;;;32.32;38.19;99455.16;6271914;22;20149;-66
2022/08/15 09:00:18;;;;;;;7.72;6.53;;;;;;;32.39;38.15;99450.09;6271521;22;20004;-66
2022/08/15 09:02:52;;;;;;;9.90;6.90;;;;;;;32.40;37.43;99451.75;6271527;22;20006;-66
2022/08/15 09:05:40;;;;;;;14.57;7.70;;;;;;;32.58;37.20;99445.41;6271812;22;20003;-66
2022/08/15 09:08:15;;;;;;;9.55;6.55;;;;;;;32.61;37.24;99449.53;6271392;22;20007;-66
2022/08/15 09:10:46;;;;;;;10.02;6.50;;;;;;;32.50;37.23;99429.41;6272010;22;20451;-66
2022/08/15 09:16:06;;;;;;;7.78;6.97;;;;;;;32.72;36.97;99444.66;6271407;22;20018;-65
2022/08/15 09:18:37;;;;;;;8.32;7.07;;;;;;;32.78;36.67;99443.47;6269708;22;20011;-65
2022/08/15 09:21:05;;;;;;;10.30;7.10;;;;;;;32.80;36.36;99435.63;6271426;22;20078;-66
2022/08/15 09:23:44;;;;;;;7.57;6.60;;;;;;;32.84;36.27;99450.56;6269980;22;20082;-66
2022/08/15 09:26:09;;;;;;;8.23;6.57;;;;;;;32.92;35.24;99441.59;6271314;22;20010;-66
2022/08/15 09:28:39;;;;;;;9.90;6.63;;;;;;;32.85;35.75;99430.84;6271348;22;20008;-65
2022/08/15 09:31:20;;;;;;;7.18;6.03;;;;;;;32.89;36.13;99431.94;6271281;22;20416;-65
2022/08/15 09:33:55;;;;;;;10.63;6.80;;;;;;;33.02;35.76;99438.66;6269747;22;20038;-65
2022/08/15 09:36:34;;;;;;;9.00;6.47;;;;;;;33.10;34.63;99438.81;6271489;22;20010;-66
2022/08/15 09:39:21;;;;;;;6.88;6.28;;;;;;;33.26;34.08;99434.63;6271354;22;20010;-67
2022/08/15 09:42:23;;;;;;;6.95;6.10;;;;;;;33.35;34.46;99432.81;6271381;22;20011;-65
2022/08/15 09:45:11;;;;;;;6.75;6.15;;;;;;;33.41;34.03;99428.84;6271202;22;20007;-66
2022/08/15 09:48:22;;;;;;;10.50;6.35;;;;;;;33.48;33.87;99429.28;6254275;22;20016;-66
2022/08/15 09:50:53;;;;;;;8.93;6.00;;;;;;;33.57;33.72;99415.50;6147005;23;20014;-66
2022/08/15 09:53:24;;;;;;;9.45;5.88;;;;;;;33.63;33.36;99409.50;6147768;23;20013;-66
2022/08/15 09:55:52;;;;;;;6.00;5.50;;;;;;;33.74;33.34;99418.50;6213716;22;20007;-66
2022/08/15 09:58:34;;;;;;;8.70;6.32;;;;;;;33.90;32.38;99414.31;6271374;22;20009;-65
2022/08/15 10:01:18;;;;;;;8.30;5.90;;;;;;;33.96;32.79;99410.31;6271300;22;20455;-66
2022/08/15 10:03:43;;;;;;;9.10;6.28;;;;;;;33.98;32.44;99408.84;6271261;22;20010;-66
2022/08/15 10:06:12;;;;;;;7.03;6.03;;;;;;;33.99;32.41;99406.91;6270951;22;20332;-66
2022/08/15 10:08:53;;;;;;;7.93;6.47;;;;;;;34.00;31.82;99400.19;6271141;22;20213;-66
2022/08/15 10:11:57;;;;;;;6.60;6.00;;;;;;;33.85;32.19;99406.06;6271352;22;20019;-66
2022/08/15 10:14:29;;;;;;;7.43;6.72;;;;;;;33.71;32.18;99405.19;6271186;22;20087;-65
2022/08/15 10:17:19;;;;;;;8.00;6.55;;;;;;;33.65;32.17;99403.63;6271111;22;20071;-65
2022/08/15 10:19:45;;;;;;;6.82;6.22;;;;;;;33.53;33.02;99403.34;6269451;22;20030;-66
2022/08/15 10:22:24;;;;;;;6.70;6.00;;;;;;;33.41;33.00;99405.78;6270904;22;20003;-66
2022/08/15 10:25:17;;;;;;;7.10;6.35;;;;;;;33.34;33.52;99402.53;6270787;22;20521;-67
2022/08/15 10:28:06;;;;;;;9.20;6.65;;;;;;;33.31;33.20;99401.19;6271096;22;20003;-65
2022/08/15 10:30:44;;;;;;;6.80;5.97;;;;;;;33.29;33.02;99397.88;6269731;22;20375;-66
2022/08/15 10:33:33;;;;;;;6.10;5.53;;;;;;;33.26;32.94;99398.50;6272935;22;20444;-64
2022/08/15 10:36:13;;;;;;;6.95;6.35;;;;;;;33.28;33.25;99393.47;6273000;22;19999;-66
2022/08/15 10:39:16;;;;;;;7.38;6.28;;;;;;;33.34;33.48;99383.91;6273001;22;20035;-66
2022/08/15 10:42:03;;;;;;;6.93;5.93;;;;;;;33.45;32.91;99387.34;6272924;22;20400;-66
2022/08/15 10:44:51;;;;;;;6.80;6.20;;;;;;;33.48;33.02;99368.09;6273467;22;20007;-66
2022/08/15 10:47:42;;;;;;;7.78;5.68;;;;;;;33.65;32.54;99379.44;6273159;22;20073;-66
2022/08/15 10:50:22;;;;;;;6.50;5.90;;;;;;;33.78;32.69;99375.00;6271413;22;20041;-66
2022/08/15 10:53:18;;;;;;;6.20;5.60;;;;;;;33.91;32.54;99371.44;6273021;22;20336;-66
2022/08/15 10:55:44;;;;;;;7.65;6.10;;;;;;;34.04;32.28;99371.44;6273313;22;20015;-66
2022/08/15 10:58:32;;;;;;;6.60;6.00;;;;;;;34.12;31.77;99370.72;6270935;22;20007;-64
2022/08/15 11:01:03;;;;;;;6.85;6.13;;;;;;;34.19;31.91;99371.09;6272816;22;20061;-66
2022/08/15 11:03:49;;;;;;;6.38;5.88;;;;;;;34.19;32.05;99367.50;6271304;22;20091;-66
2022/08/15 11:06:21;;;;;;;10.70;5.97;;;;;;;34.25;31.93;99374.59;6272927;22;20428;-66
2022/08/15 11:08:53;;;;;;;6.55;5.95;;;;;;;34.33;31.84;99371.06;6273488;22;20403;-66
2022/08/15 11:11:26;;;;;;;6.20;5.60;;;;;;;34.40;31.73;99360.38;6271196;22;20399;-66
2022/08/15 11:14:07;;;;;;;6.73;6.13;;;;;;;34.37;31.46;99333.97;6273052;22;20031;-65
2022/08/15 11:16:36;;;;;;;7.15;6.45;;;;;;;34.55;31.30;99368.34;6272792;22;20229;-66
2022/08/15 11:19:21;;;;;;;7.43;6.28;;;;;;;34.45;31.52;99341.56;6272481;22;20069;-65
2022/08/15 11:21:55;;;;;;;8.98;6.40;;;;;;;34.56;31.33;99356.09;6272386;22;20014;-65
2022/08/15 11:24:41;;;;;;;7.75;5.93;;;;;;;34.43;31.69;99360.56;6272750;22;20086;-66
2022/08/15 11:27:21;;;;;;;8.02;6.75;;;;;;;34.37;32.18;99358.22;6270974;22;20023;-66
2022/08/15 11:29:48;;;;;;;6.90;6.20;;;;;;;34.23;31.48;99341.50;6272516;22;20008;-66
2022/08/15 11:32:28;;;;;;;7.43;6.72;;;;;;;34.17;31.85;99355.84;6273297;22;20306;-66
2022/08/15 11:34:54;;;;;;;6.70;5.97;;;;;;;34.05;31.55;99356.38;6272416;22;20060;-66
2022/08/15 11:37:24;;;;;;;6.13;5.63;;;;;;;34.03;31.88;99344.72;6272565;22;20072;-66
2022/08/15 11:40:07;;;;;;;7.03;6.43;;;;;;;33.96;31.95;99349.06;6272281;22;20007;-66
2022/08/15 11:42:39;;;;;;;6.97;6.38;;;;;;;33.90;31.92;99353.09;6272289;22;20007;-66
2022/08/15 11:45:14;;;;;;;7.00;6.10;;;;;;;33.83;31.79;99347.09;6272422;22;20011;-67
2022/08/15 11:47:46;;;;;;;6.70;6.10;;;;;;;33.83;32.28;99341.53;6272506;22;20008;-66
2022/08/15 11:50:35;;;;;;;8.93;6.50;;;;;;;33.79;32.48;99341.31;6272726;22;20068;-66
2022/08/15 11:53:06;;;;;;;7.97;6.20;;;;;;;33.92;32.40;99356.41;6253748;22;20333;-66
2022/08/15 11:55:32;;;;;;;7.05;6.38;;;;;;;33.95;31.63;99350.22;6273354;22;20471;-65
2022/08/15 11:58:12;;;;;;;7.30;6.28;;;;;;;33.95;31.64;99339.88;6272154;22;20003;-67
2022/08/15 12:00:42;;;;;;;6.43;5.82;;;;;;;33.94;31.94;99340.19;6272624;22;19999;-65
2022/08/15 12:03:21;;;;;;;7.60;6.15;;;;;;;33.91;31.94;99338.88;6271272;22;20043;-65
2022/08/15 12:05:48;;;;;;;7.78;6.75;;;;;;;33.88;31.99;99333.91;6273151;22;19999;-65
2022/08/15 12:08:23;;;;;;;7.00;6.40;;;;;;;33.83;31.25;99336.78;6272843;22;20008;-65
2022/08/15 12:10:50;;;;;;;6.95;6.35;;;;;;;33.72;31.63;99335.34;6271026;22;20098;-65